• Join FlightAware (Why Join?)
  • Login
  • US Flag 
05:49PM EDT


 

Airport Tracker/Info


-or-


 

Live Flight TrackerFlight Track Log ✈ UAL1605 ✈ 21-Jun-2013 ✈ TJSJ / SJU - KEWR

Flight Track Log - Related Links

Times and Time Zones

All times are in EDT time to prevent confusion due to time zone crossing. See the UAL1605 flight status page for this flight to view local times or setup timezone preferences in your user account.

Time Position Orientation Groundspeed Altitude Reporting Facility
EDT Latitude Longitude Course Direction KTS MPH feet Rate Location/Type
05:36AM 18.4340 -65.9960 90° East  Level FlightAware
05:36AM 18.4390 -65.9700 79° East 173 199 1,500 2,160 Climbing FlightAware
05:37AM 18.4480 -65.9650 28° Northeast 187 215 1,800 1,860 Climbing FlightAware
05:37AM 18.4640 -65.9630 North 205 236 2,400 2,220 Climbing FlightAware
05:37AM 18.4930 -65.9620 North 226 260 3,400 1,920 Climbing FlightAware
05:38AM 18.5240 -65.9600 North 256 295 4,200 2,220 Climbing FlightAware
05:38AM 18.5600 -65.9610 358° North 274 315 5,500 2,700 Climbing FlightAware
05:38AM 18.5800 -65.9620 357° North 278 320 6,200 3,000 Climbing FlightAware
05:39AM 18.6160 -65.9640 357° North 279 321 7,700 3,000 Climbing FlightAware
05:39AM 18.6530 -65.9650 359° North 280 322 9,000 2,580 Climbing FlightAware
05:40AM 18.6980 -65.9670 358° North 291 335 10,400 1,260 Climbing FlightAware
05:41AM 18.7320 -65.9680 358° North 319 367 10,800 1,620 Climbing FlightAware
05:41AM 18.8290 -65.9720 358° North 352 405 12,800 2,760 Climbing FlightAware
05:42AM 18.9070 -65.9750 358° North 364 419 14,600 2,220 Climbing FlightAware
05:43AM 18.9760 -65.9780 358° North 374 430 16,000 1,860 Climbing FlightAware
05:44AM 19.0570 -65.9790 359° North 390 449 17,300 1,620 Climbing FlightAware
05:44AM 19.1360 -65.9810 359° North 408 470 18,400 1,620 Climbing FlightAware
05:45AM 19.2000 -65.9830 358° North 415 478 19,400 1,740 Climbing FlightAware
05:46AM 19.2970 -65.9860 358° North 425 489 20,900 1,680 Climbing FlightAware
05:46AM 19.3770 -65.9880 359° North 435 501 22,000 1,680 Climbing FlightAware
05:47AM 19.4670 -65.9900 359° North 440 506 23,300 1,620 Climbing FlightAware
05:48AM 19.5450 -65.9930 358° North 445 512 24,300 1,380 Climbing FlightAware
05:48AM 19.6320 -65.9950 359° North 452 520 25,200 900 Climbing FlightAware
05:49AM 19.7180 -65.9980 358° North 455 524 25,600 1,260 Climbing FlightAware
05:50AM 19.8680 -66.0010 359° North 472 543 27,600 1,620 Climbing FlightAware
05:51AM 19.9710 -66.0040 358° North 473 544 28,700 1,380 Climbing FlightAware
05:52AM 20.0670 -66.0070 358° North 472 543 29,700 1,380 Climbing FlightAware
05:53AM 20.1760 -66.0100 359° North 469 540 30,900 1,260 Climbing FlightAware
05:53AM 20.2760 -66.0130 358° North 468 539 31,800 1,020 Climbing FlightAware
05:54AM 20.3710 -66.0150 359° North 470 541 32,500 1,020 Climbing FlightAware
05:55AM 20.5210 -66.0190 359° North 468 539 33,800 960 Climbing FlightAware
05:56AM 20.6150 -66.0220 358° North 468 539 34,400 840 Climbing FlightAware
05:57AM 20.7010 -66.0240 359° North 467 537 35,000 840 Climbing FlightAware
05:57AM 20.7930 -66.0270 358° North 467 537 35,600 660 Climbing FlightAware
05:58AM 20.8840 -66.0290 359° North 468 539 36,000 240 Climbing FlightAware
05:59AM 20.9710 -66.0320 358° North 470 541 36,000  Level FlightAware
05:59AM 21.0340 -66.0340 358° North 470 541 36,000  Level FlightAware
06:01AM 21.1760 -66.0400 358° North 470 541 36,000  Level FlightAware
06:01AM 21.2420 -66.0420 358° North 470 541 36,000  Level FlightAware
06:02AM 21.4340 -66.0440 359° North 469 540 36,000  Level FlightAware
06:03AM 21.5000 -66.0470 358° North 469 540 36,000  Level FlightAware
06:04AM 21.6030 -66.0490 359° North 462 532 36,000  Level FlightAware
06:04AM 21.6720 -66.0520 358° North 462 532 36,000  Level FlightAware
06:05AM 21.7950 -66.0560 358° North 462 532 36,000  Level FlightAware
06:06AM 21.8700 -66.0590 358° North 462 532 36,000  Level FlightAware
06:07AM 21.9550 -66.0620 358° North 462 532 36,000  Level FlightAware
06:08AM 22.0200 -66.0650 358° North 462 532 36,000  Level FlightAware
06:08AM 22.0500 -66.0667 343° North 472 543 36,000  Level New York Oceanic (ODAPS)
06:08AM 22.1110 -66.0680 358° North 462 532 36,000  Level FlightAware
06:09AM 22.1770 -66.0710 358° North 462 532 36,000  Level FlightAware
06:10AM 22.3000 -66.0750 358° North 462 532 36,000  Level FlightAware
06:11AM 22.3930 -66.0790 358° North 462 532 36,000  Level FlightAware
06:12AM 22.4670 -66.0820 358° North 462 532 36,000  Level FlightAware
06:12AM 22.5320 -66.0840 358° North 462 532 36,000  Level FlightAware
06:13AM 22.6200 -66.0880 343° North 462 532 36,000  Level FlightAware
06:18AM 23.1221 -66.2739 350° North  Level Estimated
06:18AM 22.9167 -66.3500 349° North 460 529 36,000  Level New York Oceanic (ODAPS)
06:19AM 23.2297 -66.3287 335° Northwest  Level FlightAware Approximate
06:20AM 23.3373 -66.3835 335° Northwest  Level FlightAware Approximate
06:21AM 23.4448 -66.4384 335° Northwest  Level FlightAware Approximate
06:22AM 23.5560 -66.4784 349° North  Level FlightAware Approximate
06:23AM 23.6726 -66.5027 349° North  Level FlightAware Approximate
06:24AM 23.7893 -66.5272 349° North  Level FlightAware Approximate
06:25AM 24.1657 -66.6100 349° North 460 529 36,000  Level FlightAware Transoceanic
06:26AM 24.2906 -66.6363 349° North 460 529 36,000  Level FlightAware Transoceanic
06:27AM 24.4154 -66.6626 349° North 460 529 36,000  Level FlightAware Transoceanic
06:28AM 24.5403 -66.6890 349° North 460 529 36,000  Level FlightAware Transoceanic
06:29AM 24.6652 -66.7154 349° North 460 529 36,000  Level FlightAware Transoceanic
06:30AM 24.7901 -66.7419 349° North 460 529 36,000  Level FlightAware Transoceanic
06:31AM 24.9149 -66.7685 349° North 460 529 36,000  Level FlightAware Transoceanic
06:32AM 25.0398 -66.7951 349° North 460 529 36,000  Level FlightAware Transoceanic
06:33AM 25.1646 -66.8217 349° North 460 529 36,000  Level FlightAware Transoceanic
06:34AM 25.2894 -66.8484 349° North 460 529 36,000  Level FlightAware Transoceanic
06:35AM 25.4143 -66.8752 349° North 460 529 36,000  Level FlightAware Transoceanic
06:36AM 25.5391 -66.9020 349° North 460 529 36,000  Level FlightAware Transoceanic
06:37AM 25.6639 -66.9289 349° North 460 529 36,000  Level FlightAware Transoceanic
06:38AM 25.7888 -66.9558 349° North 460 529 36,000  Level FlightAware Transoceanic
06:39AM 25.9136 -66.9828 349° North 460 529 36,000  Level FlightAware Transoceanic
06:40AM 26.0384 -67.0098 349° North 460 529 36,000  Level FlightAware Transoceanic
06:41AM 26.1632 -67.0369 349° North 460 529 36,000  Level FlightAware Transoceanic
06:42AM 26.2880 -67.0641 349° North 460 529 36,000  Level FlightAware Transoceanic
06:43AM 26.4128 -67.0913 349° North 460 529 36,000  Level FlightAware Transoceanic
06:44AM 26.5376 -67.1186 349° North 460 529 36,000  Level FlightAware Transoceanic
06:45AM 26.6624 -67.1459 349° North 460 529 36,000  Level FlightAware Transoceanic
06:46AM 26.7872 -67.1733 349° North 460 529 36,000  Level FlightAware Transoceanic
06:47AM 26.9119 -67.2008 349° North 460 529 36,000  Level FlightAware Transoceanic
06:48AM 27.0367 -67.2283 349° North 460 529 36,000  Level FlightAware Transoceanic
06:49AM 27.1615 -67.2558 349° North 460 529 36,000  Level FlightAware Transoceanic
06:50AM 27.2862 -67.2835 349° North 460 529 36,000  Level FlightAware Transoceanic
06:50AM 27.0833 -67.2500 349° North 451 519 36,000  Level New York Oceanic (ODAPS)
06:51AM 27.4110 -67.3112 349° North 460 529 36,000  Level FlightAware Transoceanic
06:52AM 27.5357 -67.3389 349° North 460 529 36,000  Level FlightAware Transoceanic
06:53AM 27.6605 -67.3668 349° North 460 529 36,000  Level FlightAware Transoceanic
06:54AM 27.7852 -67.3947 349° North 460 529 36,000  Level FlightAware Transoceanic
06:55AM 27.9100 -67.4226 349° North 460 529 36,000  Level FlightAware Transoceanic
06:56AM 27.9472 -67.4402 349° North 451 519 36,000  Level FlightAware Transoceanic
06:57AM 28.0706 -67.4676 349° North 451 519 36,000  Level FlightAware Transoceanic
06:58AM 28.1940 -67.4951 349° North 451 519 36,000  Level FlightAware Transoceanic
06:59AM 28.3174 -67.5226 349° North 451 519 36,000  Level FlightAware Transoceanic
07:00AM 28.4408 -67.5502 349° North 451 519 36,000  Level FlightAware Transoceanic
07:01AM 28.5641 -67.5779 349° North 451 519 36,000  Level FlightAware Transoceanic
07:02AM 28.6875 -67.6057 349° North 451 519 36,000  Level FlightAware Transoceanic
07:03AM 28.8109 -67.6335 349° North 451 519 36,000  Level FlightAware Transoceanic
07:04AM 28.9342 -67.6613 349° North 451 519 36,000  Level FlightAware Transoceanic
07:05AM 29.0576 -67.6893 349° North 451 519 36,000  Level FlightAware Transoceanic
07:06AM 29.1809 -67.7173 349° North 451 519 36,000  Level FlightAware Transoceanic
07:07AM 29.3042 -67.7453 349° North 451 519 36,000  Level FlightAware Transoceanic
07:08AM 29.4276 -67.7735 349° North 451 519 36,000  Level FlightAware Transoceanic
07:09AM 29.5509 -67.8017 349° North 451 519 36,000  Level FlightAware Transoceanic
07:10AM 29.6742 -67.8299 349° North 451 519 36,000  Level FlightAware Transoceanic
07:11AM 29.7975 -67.8583 349° North 451 519 36,000  Level FlightAware Transoceanic
07:12AM 29.9208 -67.8867 349° North 451 519 36,000  Level FlightAware Transoceanic
07:13AM 30.0441 -67.9152 349° North 451 519 36,000  Level FlightAware Transoceanic
07:14AM 30.1674 -67.9437 349° North 451 519 36,000  Level FlightAware Transoceanic
07:15AM 30.2907 -67.9724 349° North 451 519 36,000  Level FlightAware Transoceanic
07:16AM 30.4140 -68.0011 349° North 451 519 36,000  Level FlightAware Transoceanic
07:17AM 30.5373 -68.0298 349° North 451 519 36,000  Level FlightAware Transoceanic
07:18AM 30.6605 -68.0587 349° North 451 519 36,000  Level FlightAware Transoceanic
07:19AM 30.7838 -68.0876 349° North 451 519 36,000  Level FlightAware Transoceanic
07:20AM 30.9070 -68.1166 349° North 451 519 36,000  Level FlightAware Transoceanic
07:21AM 31.0303 -68.1457 349° North 451 519 36,000  Level FlightAware Transoceanic
07:22AM 31.1535 -68.1748 349° North 451 519 36,000  Level FlightAware Transoceanic
07:23AM 31.2768 -68.2040 349° North 451 519 36,000  Level FlightAware Transoceanic
07:24AM 31.4000 -68.2333 348° North 451 519 36,000  Level FlightAware Transoceanic
07:25AM 31.5193 -68.2622 348° North 451 519 36,000  Level FlightAware Transoceanic
07:26AM 31.6386 -68.2911 348° North 451 519 36,000  Level FlightAware Transoceanic
07:27AM 31.7579 -68.3201 348° North 451 519 36,000  Level FlightAware Transoceanic
07:27AM 31.4000 -68.2333 348° North 437 503 36,000  Level New York Oceanic (ODAPS)
07:28AM 31.8772 -68.3491 348° North 451 519 36,000  Level FlightAware Transoceanic
07:29AM 31.9965 -68.3783 348° North 451 519 36,000  Level FlightAware Transoceanic
07:30AM 32.1157 -68.4075 348° North 451 519 36,000  Level FlightAware Transoceanic
07:31AM 32.2350 -68.4368 348° North 451 519 36,000  Level FlightAware Transoceanic
07:32AM 32.3543 -68.4661 348° North 451 519 36,000  Level FlightAware Transoceanic
07:33AM 32.2350 -68.4368 348° North 437 503 36,000  Level FlightAware Transoceanic
07:34AM 32.3543 -68.4661 348° North 437 503 36,000  Level FlightAware Transoceanic
07:35AM 32.4735 -68.4956 348° North 437 503 36,000  Level FlightAware Transoceanic
07:36AM 32.5928 -68.5251 348° North 437 503 36,000  Level FlightAware Transoceanic
07:37AM 32.7120 -68.5547 348° North 437 503 36,000  Level FlightAware Transoceanic
07:38AM 32.8312 -68.5844 348° North 437 503 36,000  Level FlightAware Transoceanic
07:39AM 32.9505 -68.6141 348° North 437 503 36,000  Level FlightAware Transoceanic
07:40AM 33.0697 -68.6440 348° North 437 503 36,000  Level FlightAware Transoceanic
07:41AM 33.1889 -68.6739 348° North 437 503 36,000  Level FlightAware Transoceanic
07:42AM 33.3081 -68.7039 348° North 437 503 36,000  Level FlightAware Transoceanic
07:43AM 33.4273 -68.7340 348° North 437 503 36,000  Level FlightAware Transoceanic
07:44AM 33.5465 -68.7641 348° North 437 503 36,000  Level FlightAware Transoceanic
07:45AM 33.6656 -68.7944 348° North 437 503 36,000  Level FlightAware Transoceanic
07:46AM 33.7848 -68.8247 348° North 437 503 36,000  Level FlightAware Transoceanic
07:47AM 33.9040 -68.8551 348° North 437 503 36,000  Level FlightAware Transoceanic
07:48AM 34.0232 -68.8857 348° North 437 503 36,000  Level FlightAware Transoceanic
07:49AM 34.1423 -68.9162 348° North 437 503 36,000  Level FlightAware Transoceanic
07:50AM 34.2615 -68.9469 348° North 437 503 36,000  Level FlightAware Transoceanic
07:51AM 34.3806 -68.9777 348° North 437 503 36,000  Level FlightAware Transoceanic
07:52AM 34.4997 -69.0085 348° North 437 503 36,000  Level FlightAware Transoceanic
07:53AM 34.6188 -69.0395 348° North 437 503 36,000  Level FlightAware Transoceanic
07:54AM 34.7379 -69.0705 348° North 437 503 36,000  Level FlightAware Transoceanic
07:55AM 34.8571 -69.1016 348° North 437 503 36,000  Level FlightAware Transoceanic
07:56AM 34.9762 -69.1328 348° North 437 503 36,000  Level FlightAware Transoceanic
07:57AM 35.0952 -69.1641 348° North 437 503 36,000  Level FlightAware Transoceanic
07:58AM 35.2143 -69.1955 348° North 437 503 36,000  Level FlightAware Transoceanic
07:59AM 35.3334 -69.2270 348° North 437 503 36,000  Level FlightAware Transoceanic
08:00AM 35.4524 -69.2586 348° North 437 503 36,000  Level FlightAware Transoceanic
08:01AM 35.5715 -69.2902 348° North 437 503 36,000  Level FlightAware Transoceanic
08:02AM 35.6906 -69.3220 348° North 437 503 36,000  Level FlightAware Transoceanic
08:03AM 35.8096 -69.3539 348° North 437 503 36,000  Level FlightAware Transoceanic
08:04AM 35.9286 -69.3858 348° North 437 503 36,000  Level FlightAware Transoceanic
08:05AM 36.0476 -69.4178 348° North 437 503 36,000  Level FlightAware Transoceanic
08:06AM 36.1667 -69.4500 322° Northwest 437 503 36,000  Level FlightAware Transoceanic
08:06AM 36.1667 -69.4500 322° Northwest 418 481 36,000  Level New York Oceanic (ODAPS)
08:07AM 36.2641 -69.5440 322° Northwest 437 503 36,000  Level FlightAware Transoceanic
08:08AM 36.3615 -69.6383 322° Northwest 437 503 36,000  Level FlightAware Transoceanic
08:09AM 36.4588 -69.7328 322° Northwest 437 503 36,000  Level FlightAware Transoceanic
08:10AM 36.5560 -69.8275 322° Northwest 437 503 36,000  Level FlightAware Transoceanic
08:11AM 36.6531 -69.9225 322° Northwest 437 503 36,000  Level FlightAware Transoceanic
08:12AM 36.7502 -70.0177 322° Northwest 437 503 36,000  Level FlightAware Transoceanic
08:13AM 36.8073 -70.0738 322° Northwest 418 481 36,000  Level FlightAware Transoceanic
08:14AM 36.8985 -70.1638 322° Northwest 418 481 36,000  Level FlightAware Transoceanic
08:15AM 36.9897 -70.2540 322° Northwest 418 481 36,000  Level FlightAware Transoceanic
08:16AM 37.0808 -70.3444 322° Northwest 418 481 36,000  Level FlightAware Transoceanic
08:17AM 37.1719 -70.4350 322° Northwest 418 481 36,000  Level FlightAware Transoceanic
08:18AM 37.2628 -70.5258 321° Northwest 418 481 36,000  Level FlightAware Transoceanic
08:19AM 37.3537 -70.6169 321° Northwest 418 481 36,000  Level FlightAware Transoceanic
08:20AM 37.4446 -70.7082 321° Northwest 418 481 36,000  Level FlightAware Transoceanic
08:21AM 37.5354 -70.7997 321° Northwest 418 481 36,000  Level FlightAware Transoceanic
08:22AM 37.6260 -70.8914 321° Northwest 418 481 36,000  Level FlightAware Transoceanic
08:22AM 37.6769 -70.9269 330° Northwest 447 514 36,000  Level New York Center
08:23AM 37.7167 -70.9833 330° Northwest 418 481 36,000  Level FlightAware Transoceanic
08:23AM 37.7603 -71.0033 324° Northwest 426 490 36,000  Level New York Center
08:24AM 37.8182 -71.0582 330° Northwest 418 481 36,000  Level FlightAware Transoceanic
08:24AM 37.8622 -71.0775 330° Northwest 421 484 36,000  Level New York Center
08:25AM 37.9196 -71.1332 330° Northwest 418 481 36,000  Level FlightAware Transoceanic
08:25AM 37.9581 -71.1647 324° Northwest 421 484 36,000  Level New York Center
08:26AM 38.0210 -71.2084 330° Northwest 418 481 36,000  Level FlightAware Transoceanic
08:31AM 38.5988 -71.6201 324° Northwest 427 491 36,000  Level FlightAware ADS-B
08:32AM 38.6837 -71.6841 330° Northwest 428 493 36,000 -720 Level FlightAware ADS-B
08:35AM 38.8820 -71.9930 310° West 33,900 -840 Descending FlightAware
08:35AM 38.9385 -72.0949 306° West 444 511 33,200 -960 Descending FlightAware ADS-B
08:37AM 39.0210 -72.2460 305° West 439 505 32,100 -660 Descending FlightAware
08:38AM 39.0730 -72.3440 304° West 446 513 31,900 -2,220 Descending FlightAware
08:38AM 39.1291 -72.4455 305° West 442 509 29,000 -3,300 Descending FlightAware ADS-B
08:39AM 39.1950 -72.5670 305° West 424 488 26,600 -1,800 Descending FlightAware
08:40AM 39.2610 -72.6930 304° West 408 470 25,200 -1,440 Descending FlightAware
08:42AM 39.3460 -72.8510 305° West 395 455 23,000 -2,820 Descending FlightAware
08:43AM 39.4154 -72.9795 305° West 373 429 18,700 -3,660 Descending FlightAware ADS-B
08:43AM 39.4457 -73.0365 305° West 362 417 17,600 -2,160 Descending FlightAware ADS-B
08:44AM 39.4965 -73.1325 304° West 353 406 15,600 -2,520 Descending FlightAware ADS-B
08:45AM 39.5344 -73.2041 304° West 358 412 13,700 -2,520 Descending FlightAware ADS-B
08:45AM 39.5630 -73.2570 305° West 353 406 12,600 -2,280 Descending FlightAware
08:46AM 39.6070 -73.3410 304° West 346 398 10,700 -2,160 Descending FlightAware
08:47AM 39.6350 -73.3950 304° West 338 389 9,600 -780 Descending FlightAware
08:48AM 39.6730 -73.4690 304° West 307 353 9,700  Climbing FlightAware
08:48AM 39.6880 -73.4960 306° West 273 314 9,600 -180 Descending FlightAware
08:48AM 39.7070 -73.5330 304° West 271 312 9,600  Level FlightAware
08:49AM 39.7250 -73.5670 305° West 272 313 9,600  Level FlightAware
08:49AM 39.7460 -73.6060 305° West 272 313 9,600  Level FlightAware
08:50AM 39.7740 -73.6600 304° West 268 308 9,600  Level FlightAware
08:50AM 39.7940 -73.7000 303° West 267 307 9,600  Level FlightAware
08:51AM 39.8050 -73.7210 304° West 267 307 9,600 120 Level FlightAware
08:51AM 39.8260 -73.7610 304° West 267 307 9,700  Climbing FlightAware
08:51AM 39.8335 -73.7756 304° West 265 305 9,600 -1,200 Descending FlightAware ADS-B
08:52AM 39.8500 -73.8075 304° West 264 304 9,000 -1,440 Descending FlightAware ADS-B
08:52AM 39.8603 -73.8273 304° West 263 303 8,700 -1,380 Descending FlightAware ADS-B
08:52AM 39.8712 -73.8486 304° West 269 310 8,300 -1,500 Descending FlightAware ADS-B
08:52AM 39.8821 -73.8697 304° West 273 314 7,900 -1,320 Descending FlightAware ADS-B
08:53AM 39.9101 -73.9234 304° West 269 310 7,100 -1,320 Descending FlightAware ADS-B
08:53AM 39.9207 -73.9437 304° West 271 312 6,700 -1,380 Descending FlightAware ADS-B
08:54AM 39.9316 -73.9653 303° West 272 313 6,400 -1,200 Descending FlightAware ADS-B
08:54AM 39.9422 -73.9862 303° West 272 313 6,100 -1,320 Descending FlightAware ADS-B
08:54AM 39.9539 -74.0089 304° West 272 313 5,700 -540 Descending FlightAware ADS-B
08:55AM 39.9840 -74.0670 304° West 267 307 5,600  Descending FlightAware
08:55AM 40.0010 -74.0990 305° West 265 305 5,700 120 Climbing FlightAware
08:56AM 40.0190 -74.1340 304° West 265 305 5,700  Level FlightAware
08:56AM 40.0297 -74.1561 302° West 266 306 5,700  Level FlightAware ADS-B
08:56AM 40.0425 -74.1811 304° West 265 305 5,700  Level FlightAware ADS-B
08:57AM 40.0548 -74.2053 304° West 266 306 5,700  Level FlightAware ADS-B
08:57AM 40.0671 -74.2294 304° West 267 307 5,700  Level FlightAware ADS-B
08:57AM 40.0783 -74.2512 304° West 267 307 5,700  Level FlightAware ADS-B
08:57AM 40.0893 -74.2729 304° West 267 307 5,700 -180 Level FlightAware ADS-B
08:58AM 40.1027 -74.2991 304° West 267 307 5,600  Descending FlightAware ADS-B
08:58AM 40.1134 -74.3200 304° West 267 307 5,700 180 Climbing FlightAware ADS-B
08:58AM 40.1242 -74.3412 304° West 267 307 5,700  Level FlightAware ADS-B
08:59AM 40.1345 -74.3615 304° West 268 308 5,700  Level FlightAware ADS-B
08:59AM 40.1458 -74.3837 304° West 268 308 5,700  Level FlightAware ADS-B
08:59AM 40.1562 -74.4041 304° West 268 308 5,700  Level FlightAware ADS-B
08:59AM 40.1684 -74.4280 304° West 270 311 5,700  Level FlightAware ADS-B
09:00AM 40.1840 -74.4588 304° West 271 312 5,700  Level FlightAware ADS-B
09:00AM 40.1956 -74.4814 304° West 271 312 5,700  Level FlightAware ADS-B
09:00AM 40.2007 -74.4899 308° West 272 313 5,700  Level FlightAware ADS-B
09:00AM 40.2057 -74.4970 313° West 271 312 5,700  Level FlightAware ADS-B
09:00AM 40.2117 -74.5034 321° Northwest 270 311 5,700  Level FlightAware ADS-B
09:00AM 40.2195 -74.5092 330° Northwest 270 311 5,700 -540 Level FlightAware ADS-B
09:01AM 40.2251 -74.5126 335° Northwest 270 311 5,600 -360 Descending FlightAware ADS-B
09:01AM 40.2419 -74.5219 337° Northwest 270 311 5,600 180 Level FlightAware ADS-B
09:01AM 40.2593 -74.5315 337° Northwest 270 311 5,700 180 Climbing FlightAware ADS-B
09:01AM 40.2781 -74.5419 337° Northwest 271 312 5,700  Level FlightAware ADS-B
09:02AM 40.2963 -74.5520 337° Northwest 271 312 5,700  Level FlightAware ADS-B
09:02AM 40.3165 -74.5632 337° Northwest 270 311 5,700  Level FlightAware ADS-B
09:02AM 40.3338 -74.5728 337° Northwest 271 312 5,700  Level FlightAware ADS-B
09:02AM 40.3544 -74.5842 337° Northwest 269 310 5,700  Level FlightAware ADS-B
09:03AM 40.3661 -74.5894 341° North 268 308 5,700  Level FlightAware ADS-B
09:03AM 40.3706 -74.5904 350° North 268 308 5,700  Level FlightAware ADS-B
09:03AM 40.3755 -74.5906 358° North 268 308 5,700 -780 Level FlightAware ADS-B
09:03AM 40.3804 -74.5903 North 268 308 5,600 -360 Descending FlightAware ADS-B
09:03AM 40.3991 -74.5874 North 270 311 5,600 180 Level FlightAware ADS-B
09:03AM 40.4179 -74.5844 North 269 310 5,700 180 Climbing FlightAware ADS-B
09:04AM 40.4390 -74.5809 North 269 310 5,700  Level FlightAware ADS-B
09:04AM 40.4593 -74.5777 North 270 311 5,700  Level FlightAware ADS-B
09:04AM 40.4783 -74.5746 North 270 311 5,700  Level FlightAware ADS-B
09:04AM 40.4970 -74.5715 North 271 312 5,700  Level FlightAware ADS-B
09:05AM 40.5178 -74.5680 North 272 313 5,700  Level FlightAware ADS-B
09:05AM 40.5369 -74.5648 North 273 314 5,700  Level FlightAware ADS-B
09:05AM 40.5598 -74.5610 North 274 315 5,700  Level FlightAware ADS-B
09:05AM 40.5820 -74.5573 North 274 315 5,700  Level FlightAware ADS-B
09:06AM 40.6032 -74.5538 North 274 315 5,700  Level FlightAware ADS-B
09:06AM 40.6237 -74.5505 North 274 315 5,700 -120 Level FlightAware ADS-B
09:07AM 40.6670 -74.5430 North 275 316 5,600 -120 Descending FlightAware
09:07AM 40.7165 -74.5351 North 274 315 5,600 -300 Level FlightAware ADS-B
09:08AM 40.7455 -74.5301 North 275 316 5,300 -780 Descending FlightAware ADS-B
09:08AM 40.7653 -74.5268 North 275 316 5,100 -660 Descending FlightAware ADS-B
09:08AM 40.8050 -74.5200 North 271 312 4,800 -480 Descending FlightAware
09:09AM 40.8310 -74.5110 15° North 272 313 4,700 -420 Descending FlightAware
09:09AM 40.8410 -74.4990 42° Northeast 275 316 4,600  Descending FlightAware
09:09AM 40.8630 -74.4680 47° Northeast 273 314 4,700 60 Climbing FlightAware
09:10AM 40.8843 -74.4338 51° Northeast 273 314 4,700 -180 Level FlightAware ADS-B
09:10AM 40.8949 -74.4123 57° Northeast 273 314 4,600  Descending FlightAware ADS-B
09:11AM 40.9110 -74.3790 57° Northeast 272 313 4,700 60 Climbing FlightAware
09:11AM 40.9250 -74.3220 72° East 271 312 4,700 -180 Level FlightAware
09:11AM 40.9300 -74.2970 75° East 271 312 4,600 -240 Descending FlightAware
09:12AM 40.9349 -74.2708 76° East 272 313 4,600 -900 Level FlightAware ADS-B
09:12AM 40.9407 -74.2397 76° East 273 314 4,100 -1,620 Descending FlightAware ADS-B
09:12AM 40.9432 -74.2225 79° East 274 315 3,800 -1,200 Descending FlightAware ADS-B
09:12AM 40.9431 -74.2072 90° East 271 312 3,700 -300 Descending FlightAware ADS-B
09:13AM 40.9190 -74.1589 123° Southeast 269 310 3,600 -120 Descending FlightAware ADS-B
09:13AM 40.9106 -74.1474 134° Southeast 234 269 3,600 -480 Level FlightAware ADS-B
09:13AM 40.8992 -74.1318 134° Southeast 236 272 3,400 -780 Descending FlightAware ADS-B
09:14AM 40.8877 -74.1159 134° Southeast 233 268 3,200 -840 Descending FlightAware ADS-B
09:14AM 40.8826 -74.1093 136° Southeast 230 265 3,100 -600 Descending FlightAware ADS-B
09:14AM 40.8794 -74.1060 142° Southeast 226 260 3,100 -780 Level FlightAware ADS-B
09:14AM 40.8757 -74.1029 148° Southeast 223 257 3,000 -960 Descending FlightAware ADS-B
09:14AM 40.8618 -74.0938 154° Southeast 219 252 2,800 -960 Descending FlightAware ADS-B
09:14AM 40.8463 -74.0838 154° Southeast 215 247 2,500 -960 Descending FlightAware ADS-B
09:15AM 40.8393 -74.0796 156° South 208 239 2,400 -1,020 Descending FlightAware ADS-B
09:15AM 40.8356 -74.0781 163° South 203 234 2,300 -1,020 Descending FlightAware ADS-B
09:15AM 40.8284 -74.0781 180° South 193 222 2,200 -600 Descending FlightAware ADS-B
09:15AM 40.8258 -74.0790 195° South 189 217 2,200 -780 Level FlightAware ADS-B
09:15AM 40.8216 -74.0815 204° Southwest 187 215 2,100 -420 Descending FlightAware ADS-B
09:15AM 40.8143 -74.0868 209° Southwest 184 212 2,100 -600 Level FlightAware ADS-B
09:15AM 40.7968 -74.0984 207° Southwest 183 211 1,800 -960 Descending FlightAware ADS-B
09:16AM 40.7852 -74.1059 206° Southwest 181 208 1,500 -1,020 Descending FlightAware ADS-B
09:16AM 40.7737 -74.1130 205° Southwest 180 207 1,300 -840 Descending FlightAware ADS-B
09:16AM 40.7627 -74.1199 205° Southwest 173 199 1,100 -1,020 Descending FlightAware ADS-B
09:16AM 40.7521 -74.1267 206° Southwest 162 186 800 -960 Descending FlightAware ADS-B
09:17AM 40.7454 -74.1312 207° Southwest 155 178 700 -780 Descending FlightAware ADS-B
09:17AM 40.7276 -74.1425 206° Southwest 143 165 300 -840 Descending FlightAware ADS-B